sensor_id;sensor_type;location;lat;lon;timestamp;P1;durP1;ratioP1;P2;durP2;ratioP2
42670;SDS011;28283;55.426;37.756;2023-12-07T00:03:46;32.92;;;15.80;;
42670;SDS011;28283;55.426;37.756;2023-12-07T00:08:47;37.47;;;16.60;;
42670;SDS011;28283;55.426;37.756;2023-12-07T00:13:47;38.42;;;18.08;;
42670;SDS011;28283;55.426;37.756;2023-12-07T00:18:48;37.35;;;17.35;;
42670;SDS011;28283;55.426;37.756;2023-12-07T00:23:49;36.72;;;16.60;;
42670;SDS011;28283;55.426;37.756;2023-12-07T00:28:49;35.38;;;16.20;;
42670;SDS011;28283;55.426;37.756;2023-12-07T00:33:50;45.88;;;19.40;;
42670;SDS011;28283;55.426;37.756;2023-12-07T00:38:51;34.63;;;17.88;;
42670;SDS011;28283;55.426;37.756;2023-12-07T00:43:51;36.10;;;18.05;;
42670;SDS011;28283;55.426;37.756;2023-12-07T00:48:52;42.40;;;18.63;;
42670;SDS011;28283;55.426;37.756;2023-12-07T00:53:52;36.53;;;17.13;;
42670;SDS011;28283;55.426;37.756;2023-12-07T00:58:53;32.58;;;16.38;;
42670;SDS011;28283;55.426;37.756;2023-12-07T01:03:54;36.97;;;17.05;;
42670;SDS011;28283;55.426;37.756;2023-12-07T01:08:54;33.90;;;15.25;;
42670;SDS011;28283;55.426;37.756;2023-12-07T01:13:55;34.10;;;16.60;;
42670;SDS011;28283;55.426;37.756;2023-12-07T01:18:56;34.08;;;15.80;;
42670;SDS011;28283;55.426;37.756;2023-12-07T01:23:57;30.70;;;15.45;;
42670;SDS011;28283;55.426;37.756;2023-12-07T01:28:58;34.00;;;15.50;;
42670;SDS011;28283;55.426;37.756;2023-12-07T01:33:59;32.63;;;16.85;;
42670;SDS011;28283;55.426;37.756;2023-12-07T01:38:59;29.85;;;16.50;;
42670;SDS011;28283;55.426;37.756;2023-12-07T01:44:00;31.70;;;14.85;;
42670;SDS011;28283;55.426;37.756;2023-12-07T01:49:01;35.60;;;16.83;;
42670;SDS011;28283;55.426;37.756;2023-12-07T01:54:02;32.83;;;16.30;;
42670;SDS011;28283;55.426;37.756;2023-12-07T01:59:03;30.02;;;15.70;;
42670;SDS011;28283;55.426;37.756;2023-12-07T02:04:03;29.58;;;16.17;;
42670;SDS011;28283;55.426;37.756;2023-12-07T02:09:04;32.58;;;16.83;;
42670;SDS011;28283;55.426;37.756;2023-12-07T02:14:05;34.95;;;16.38;;
42670;SDS011;28283;55.426;37.756;2023-12-07T02:19:35;32.45;;;15.55;;
42670;SDS011;28283;55.426;37.756;2023-12-07T02:24:41;33.33;;;15.27;;
42670;SDS011;28283;55.426;37.756;2023-12-07T02:29:48;35.63;;;17.80;;
42670;SDS011;28283;55.426;37.756;2023-12-07T02:34:49;32.15;;;15.75;;
42670;SDS011;28283;55.426;37.756;2023-12-07T02:39:49;31.23;;;15.30;;
42670;SDS011;28283;55.426;37.756;2023-12-07T02:44:53;38.03;;;18.40;;
42670;SDS011;28283;55.426;37.756;2023-12-07T02:49:54;35.42;;;16.23;;
42670;SDS011;28283;55.426;37.756;2023-12-07T02:54:54;28.67;;;14.75;;
42670;SDS011;28283;55.426;37.756;2023-12-07T02:59:55;32.03;;;16.98;;
42670;SDS011;28283;55.426;37.756;2023-12-07T03:04:56;26.10;;;13.70;;
42670;SDS011;28283;55.426;37.756;2023-12-07T03:09:56;30.02;;;15.95;;
42670;SDS011;28283;55.426;37.756;2023-12-07T03:14:57;38.85;;;17.95;;
42670;SDS011;28283;55.426;37.756;2023-12-07T03:19:58;34.60;;;16.52;;
42670;SDS011;28283;55.426;37.756;2023-12-07T03:24:58;30.67;;;15.52;;
42670;SDS011;28283;55.426;37.756;2023-12-07T03:29:59;34.25;;;16.52;;
42670;SDS011;28283;55.426;37.756;2023-12-07T03:35:00;34.92;;;16.77;;
42670;SDS011;28283;55.426;37.756;2023-12-07T03:40:00;31.55;;;16.30;;
42670;SDS011;28283;55.426;37.756;2023-12-07T03:45:01;33.83;;;15.23;;
42670;SDS011;28283;55.426;37.756;2023-12-07T03:50:02;33.00;;;15.82;;
42670;SDS011;28283;55.426;37.756;2023-12-07T03:55:03;35.80;;;15.57;;
42670;SDS011;28283;55.426;37.756;2023-12-07T04:00:04;29.80;;;16.63;;
42670;SDS011;28283;55.426;37.756;2023-12-07T04:05:08;36.42;;;16.15;;
42670;SDS011;28283;55.426;37.756;2023-12-07T04:10:09;33.35;;;16.35;;
42670;SDS011;28283;55.426;37.756;2023-12-07T04:15:10;34.03;;;16.65;;
42670;SDS011;28283;55.426;37.756;2023-12-07T04:20:10;37.15;;;18.05;;
42670;SDS011;28283;55.426;37.756;2023-12-07T04:25:13;35.53;;;17.50;;
42670;SDS011;28283;55.426;37.756;2023-12-07T04:30:13;32.30;;;16.10;;
42670;SDS011;28283;55.426;37.756;2023-12-07T04:35:14;33.47;;;16.92;;
42670;SDS011;28283;55.426;37.756;2023-12-07T04:40:15;30.42;;;15.27;;
42670;SDS011;28283;55.426;37.756;2023-12-07T04:45:15;29.02;;;16.58;;
42670;SDS011;28283;55.426;37.756;2023-12-07T04:50:16;27.35;;;15.68;;
42670;SDS011;28283;55.426;37.756;2023-12-07T04:55:17;31.38;;;15.73;;
42670;SDS011;28283;55.426;37.756;2023-12-07T05:00:17;32.47;;;16.48;;
42670;SDS011;28283;55.426;37.756;2023-12-07T05:05:18;27.27;;;14.60;;
42670;SDS011;28283;55.426;37.756;2023-12-07T05:10:19;28.05;;;14.32;;
42670;SDS011;28283;55.426;37.756;2023-12-07T05:15:19;27.67;;;15.23;;
42670;SDS011;28283;55.426;37.756;2023-12-07T05:20:20;28.27;;;15.27;;
42670;SDS011;28283;55.426;37.756;2023-12-07T05:25:22;24.50;;;12.52;;
42670;SDS011;28283;55.426;37.756;2023-12-07T05:30:23;26.67;;;13.80;;
42670;SDS011;28283;55.426;37.756;2023-12-07T05:35:23;25.25;;;13.68;;
42670;SDS011;28283;55.426;37.756;2023-12-07T05:40:24;27.95;;;14.32;;
42670;SDS011;28283;55.426;37.756;2023-12-07T05:45:25;25.33;;;13.60;;
42670;SDS011;28283;55.426;37.756;2023-12-07T05:50:26;27.10;;;13.73;;
42670;SDS011;28283;55.426;37.756;2023-12-07T05:55:26;26.02;;;12.65;;
42670;SDS011;28283;55.426;37.756;2023-12-07T06:00:27;22.83;;;12.65;;
42670;SDS011;28283;55.426;37.756;2023-12-07T06:05:28;23.08;;;12.18;;
42670;SDS011;28283;55.426;37.756;2023-12-07T06:10:28;25.10;;;12.35;;
42670;SDS011;28283;55.426;37.756;2023-12-07T06:15:29;19.95;;;12.20;;
42670;SDS011;28283;55.426;37.756;2023-12-07T06:20:30;24.55;;;12.60;;
42670;SDS011;28283;55.426;37.756;2023-12-07T06:25:30;21.63;;;12.18;;
42670;SDS011;28283;55.426;37.756;2023-12-07T06:30:31;20.40;;;12.00;;
42670;SDS011;28283;55.426;37.756;2023-12-07T06:35:32;18.90;;;11.07;;
42670;SDS011;28283;55.426;37.756;2023-12-07T06:40:32;20.13;;;12.27;;
42670;SDS011;28283;55.426;37.756;2023-12-07T06:45:33;22.85;;;12.63;;
42670;SDS011;28283;55.426;37.756;2023-12-07T06:50:34;26.13;;;13.02;;
42670;SDS011;28283;55.426;37.756;2023-12-07T06:55:34;20.80;;;11.63;;
42670;SDS011;28283;55.426;37.756;2023-12-07T07:00:35;22.20;;;11.82;;
42670;SDS011;28283;55.426;37.756;2023-12-07T07:05:36;21.08;;;12.25;;
42670;SDS011;28283;55.426;37.756;2023-12-07T07:10:37;16.83;;;10.43;;
42670;SDS011;28283;55.426;37.756;2023-12-07T07:15:37;21.25;;;11.90;;
42670;SDS011;28283;55.426;37.756;2023-12-07T07:20:38;21.65;;;12.75;;
42670;SDS011;28283;55.426;37.756;2023-12-07T07:25:39;20.42;;;10.48;;
42670;SDS011;28283;55.426;37.756;2023-12-07T07:30:39;22.75;;;11.68;;
42670;SDS011;28283;55.426;37.756;2023-12-07T07:35:40;22.00;;;11.90;;
42670;SDS011;28283;55.426;37.756;2023-12-07T07:40:40;18.02;;;9.70;;
42670;SDS011;28283;55.426;37.756;2023-12-07T07:45:42;24.08;;;11.60;;
42670;SDS011;28283;55.426;37.756;2023-12-07T07:50:42;21.17;;;11.20;;
42670;SDS011;28283;55.426;37.756;2023-12-07T07:55:43;19.90;;;11.23;;
42670;SDS011;28283;55.426;37.756;2023-12-07T08:00:44;19.20;;;9.68;;
42670;SDS011;28283;55.426;37.756;2023-12-07T08:05:46;17.98;;;10.23;;
42670;SDS011;28283;55.426;37.756;2023-12-07T08:10:47;14.57;;;9.85;;
42670;SDS011;28283;55.426;37.756;2023-12-07T08:15:47;18.92;;;9.88;;
42670;SDS011;28283;55.426;37.756;2023-12-07T08:20:48;21.40;;;10.60;;
42670;SDS011;28283;55.426;37.756;2023-12-07T08:25:49;16.67;;;8.93;;
42670;SDS011;28283;55.426;37.756;2023-12-07T08:30:49;17.77;;;10.48;;
42670;SDS011;28283;55.426;37.756;2023-12-07T08:35:50;26.17;;;10.65;;
42670;SDS011;28283;55.426;37.756;2023-12-07T08:40:54;14.70;;;7.18;;
42670;SDS011;28283;55.426;37.756;2023-12-07T08:45:55;17.48;;;10.32;;
42670;SDS011;28283;55.426;37.756;2023-12-07T08:50:55;17.80;;;10.15;;
42670;SDS011;28283;55.426;37.756;2023-12-07T08:55:56;18.90;;;10.52;;
42670;SDS011;28283;55.426;37.756;2023-12-07T09:00:57;19.02;;;10.48;;
42670;SDS011;28283;55.426;37.756;2023-12-07T09:05:58;25.67;;;12.50;;
42670;SDS011;28283;55.426;37.756;2023-12-07T09:11:00;20.95;;;11.23;;
42670;SDS011;28283;55.426;37.756;2023-12-07T09:16:01;18.15;;;10.07;;
42670;SDS011;28283;55.426;37.756;2023-12-07T09:21:02;19.88;;;10.45;;
42670;SDS011;28283;55.426;37.756;2023-12-07T09:26:03;18.08;;;9.23;;
42670;SDS011;28283;55.426;37.756;2023-12-07T09:31:04;15.40;;;8.10;;
42670;SDS011;28283;55.426;37.756;2023-12-07T09:36:05;16.13;;;9.05;;
42670;SDS011;28283;55.426;37.756;2023-12-07T09:41:08;14.43;;;8.02;;
42670;SDS011;28283;55.426;37.756;2023-12-07T09:46:08;13.40;;;8.13;;
42670;SDS011;28283;55.426;37.756;2023-12-07T09:51:09;16.42;;;8.98;;
42670;SDS011;28283;55.426;37.756;2023-12-07T09:56:11;14.02;;;8.25;;
42670;SDS011;28283;55.426;37.756;2023-12-07T10:01:12;18.25;;;8.45;;
42670;SDS011;28283;55.426;37.756;2023-12-07T10:06:15;15.68;;;9.02;;
42670;SDS011;28283;55.426;37.756;2023-12-07T10:11:15;13.48;;;8.68;;
42670;SDS011;28283;55.426;37.756;2023-12-07T10:16:16;14.02;;;8.13;;
42670;SDS011;28283;55.426;37.756;2023-12-07T10:21:30;14.05;;;9.27;;
42670;SDS011;28283;55.426;37.756;2023-12-07T10:26:32;15.57;;;9.63;;
42670;SDS011;28283;55.426;37.756;2023-12-07T10:31:33;15.70;;;8.85;;
42670;SDS011;28283;55.426;37.756;2023-12-07T10:36:34;13.95;;;8.95;;
42670;SDS011;28283;55.426;37.756;2023-12-07T10:41:34;15.02;;;9.38;;
42670;SDS011;28283;55.426;37.756;2023-12-07T10:46:36;14.93;;;8.65;;
42670;SDS011;28283;55.426;37.756;2023-12-07T10:51:41;15.13;;;8.30;;
42670;SDS011;28283;55.426;37.756;2023-12-07T10:56:45;14.77;;;7.65;;
42670;SDS011;28283;55.426;37.756;2023-12-07T11:01:46;19.20;;;9.35;;
42670;SDS011;28283;55.426;37.756;2023-12-07T11:06:48;15.00;;;9.70;;
42670;SDS011;28283;55.426;37.756;2023-12-07T11:11:54;15.43;;;9.57;;
42670;SDS011;28283;55.426;37.756;2023-12-07T11:17:01;15.93;;;8.75;;
42670;SDS011;28283;55.426;37.756;2023-12-07T11:22:06;15.60;;;9.80;;
42670;SDS011;28283;55.426;37.756;2023-12-07T11:27:07;11.20;;;7.05;;
42670;SDS011;28283;55.426;37.756;2023-12-07T11:32:08;18.35;;;10.65;;
42670;SDS011;28283;55.426;37.756;2023-12-07T11:37:11;22.35;;;11.55;;
42670;SDS011;28283;55.426;37.756;2023-12-07T11:42:16;22.02;;;12.55;;
42670;SDS011;28283;55.426;37.756;2023-12-07T11:47:18;21.25;;;13.25;;
42670;SDS011;28283;55.426;37.756;2023-12-07T11:52:20;18.25;;;11.38;;
42670;SDS011;28283;55.426;37.756;2023-12-07T11:57:21;24.50;;;12.98;;
42670;SDS011;28283;55.426;37.756;2023-12-07T12:02:22;21.45;;;12.77;;
42670;SDS011;28283;55.426;37.756;2023-12-07T12:07:23;25.38;;;13.48;;
42670;SDS011;28283;55.426;37.756;2023-12-07T12:12:25;22.17;;;12.00;;
42670;SDS011;28283;55.426;37.756;2023-12-07T12:17:26;19.98;;;12.13;;
42670;SDS011;28283;55.426;37.756;2023-12-07T12:22:27;18.60;;;10.85;;
42670;SDS011;28283;55.426;37.756;2023-12-07T12:27:28;15.60;;;10.13;;
42670;SDS011;28283;55.426;37.756;2023-12-07T12:32:34;19.63;;;10.63;;
42670;SDS011;28283;55.426;37.756;2023-12-07T12:37:45;18.55;;;11.23;;
42670;SDS011;28283;55.426;37.756;2023-12-07T12:42:51;23.00;;;12.23;;
42670;SDS011;28283;55.426;37.756;2023-12-07T12:47:53;22.20;;;12.77;;
42670;SDS011;28283;55.426;37.756;2023-12-07T12:52:54;22.48;;;13.38;;
42670;SDS011;28283;55.426;37.756;2023-12-07T12:57:55;25.60;;;13.68;;
42670;SDS011;28283;55.426;37.756;2023-12-07T13:02:57;22.45;;;12.80;;
42670;SDS011;28283;55.426;37.756;2023-12-07T13:07:57;23.08;;;13.60;;
42670;SDS011;28283;55.426;37.756;2023-12-07T13:12:59;29.05;;;14.52;;
42670;SDS011;28283;55.426;37.756;2023-12-07T13:18:00;26.85;;;15.20;;
42670;SDS011;28283;55.426;37.756;2023-12-07T13:23:01;23.30;;;13.63;;
42670;SDS011;28283;55.426;37.756;2023-12-07T13:28:02;27.77;;;13.88;;
42670;SDS011;28283;55.426;37.756;2023-12-07T13:33:02;29.05;;;14.13;;
42670;SDS011;28283;55.426;37.756;2023-12-07T13:38:06;27.45;;;13.63;;
42670;SDS011;28283;55.426;37.756;2023-12-07T13:43:07;21.00;;;13.05;;
42670;SDS011;28283;55.426;37.756;2023-12-07T13:48:09;19.75;;;12.93;;
42670;SDS011;28283;55.426;37.756;2023-12-07T13:53:10;22.13;;;13.90;;
42670;SDS011;28283;55.426;37.756;2023-12-07T13:58:11;22.58;;;13.50;;
42670;SDS011;28283;55.426;37.756;2023-12-07T14:03:12;23.30;;;13.30;;
42670;SDS011;28283;55.426;37.756;2023-12-07T14:08:13;21.73;;;12.15;;
42670;SDS011;28283;55.426;37.756;2023-12-07T14:13:13;24.92;;;13.77;;
42670;SDS011;28283;55.426;37.756;2023-12-07T14:18:14;21.45;;;12.15;;
42670;SDS011;28283;55.426;37.756;2023-12-07T14:23:15;30.83;;;14.43;;
42670;SDS011;28283;55.426;37.756;2023-12-07T14:28:16;25.73;;;14.23;;
42670;SDS011;28283;55.426;37.756;2023-12-07T14:33:20;30.52;;;14.40;;
42670;SDS011;28283;55.426;37.756;2023-12-07T14:38:20;27.90;;;14.30;;
42670;SDS011;28283;55.426;37.756;2023-12-07T14:43:21;30.38;;;15.15;;
42670;SDS011;28283;55.426;37.756;2023-12-07T14:48:22;26.15;;;14.43;;
42670;SDS011;28283;55.426;37.756;2023-12-07T14:53:23;27.30;;;14.15;;
42670;SDS011;28283;55.426;37.756;2023-12-07T14:58:25;26.55;;;13.40;;
42670;SDS011;28283;55.426;37.756;2023-12-07T15:03:25;21.77;;;12.85;;
42670;SDS011;28283;55.426;37.756;2023-12-07T15:08:26;20.40;;;11.65;;
42670;SDS011;28283;55.426;37.756;2023-12-07T15:13:27;16.90;;;10.02;;
42670;SDS011;28283;55.426;37.756;2023-12-07T15:18:27;15.65;;;9.43;;
42670;SDS011;28283;55.426;37.756;2023-12-07T15:23:30;16.40;;;9.20;;
42670;SDS011;28283;55.426;37.756;2023-12-07T15:28:31;15.93;;;9.18;;
42670;SDS011;28283;55.426;37.756;2023-12-07T15:33:32;17.85;;;9.27;;
42670;SDS011;28283;55.426;37.756;2023-12-07T15:38:33;13.77;;;8.45;;
42670;SDS011;28283;55.426;37.756;2023-12-07T15:43:34;14.05;;;8.23;;
42670;SDS011;28283;55.426;37.756;2023-12-07T15:48:34;14.15;;;8.23;;
42670;SDS011;28283;55.426;37.756;2023-12-07T15:53:35;14.52;;;9.07;;
42670;SDS011;28283;55.426;37.756;2023-12-07T15:58:36;14.23;;;8.65;;
42670;SDS011;28283;55.426;37.756;2023-12-07T16:03:36;13.00;;;8.15;;
42670;SDS011;28283;55.426;37.756;2023-12-07T16:08:38;14.82;;;8.52;;
42670;SDS011;28283;55.426;37.756;2023-12-07T16:13:42;17.70;;;7.40;;
42670;SDS011;28283;55.426;37.756;2023-12-07T16:18:42;14.80;;;9.27;;
42670;SDS011;28283;55.426;37.756;2023-12-07T16:23:43;14.13;;;8.70;;
42670;SDS011;28283;55.426;37.756;2023-12-07T16:28:44;16.20;;;9.23;;
42670;SDS011;28283;55.426;37.756;2023-12-07T16:33:45;13.18;;;7.95;;
42670;SDS011;28283;55.426;37.756;2023-12-07T16:38:46;15.68;;;7.63;;
42670;SDS011;28283;55.426;37.756;2023-12-07T16:43:47;14.80;;;7.90;;
42670;SDS011;28283;55.426;37.756;2023-12-07T16:48:47;16.95;;;8.55;;
42670;SDS011;28283;55.426;37.756;2023-12-07T16:53:48;13.80;;;8.10;;
42670;SDS011;28283;55.426;37.756;2023-12-07T16:58:48;12.40;;;7.95;;
42670;SDS011;28283;55.426;37.756;2023-12-07T17:03:49;12.13;;;7.28;;
42670;SDS011;28283;55.426;37.756;2023-12-07T17:08:49;14.68;;;7.82;;
42670;SDS011;28283;55.426;37.756;2023-12-07T17:13:53;14.45;;;7.80;;
42670;SDS011;28283;55.426;37.756;2023-12-07T17:18:54;14.57;;;8.45;;
42670;SDS011;28283;55.426;37.756;2023-12-07T17:23:55;12.77;;;7.53;;
42670;SDS011;28283;55.426;37.756;2023-12-07T17:28:56;11.68;;;6.25;;
42670;SDS011;28283;55.426;37.756;2023-12-07T17:33:57;11.05;;;7.28;;
42670;SDS011;28283;55.426;37.756;2023-12-07T17:38:58;13.80;;;8.35;;
42670;SDS011;28283;55.426;37.756;2023-12-07T17:43:59;12.90;;;7.50;;
42670;SDS011;28283;55.426;37.756;2023-12-07T17:49:01;15.15;;;8.02;;
42670;SDS011;28283;55.426;37.756;2023-12-07T17:54:02;13.75;;;8.05;;
42670;SDS011;28283;55.426;37.756;2023-12-07T17:59:02;13.98;;;7.78;;
42670;SDS011;28283;55.426;37.756;2023-12-07T18:04:03;13.25;;;8.00;;
42670;SDS011;28283;55.426;37.756;2023-12-07T18:09:04;14.93;;;7.68;;
42670;SDS011;28283;55.426;37.756;2023-12-07T18:14:05;11.82;;;7.07;;
42670;SDS011;28283;55.426;37.756;2023-12-07T18:19:06;11.80;;;6.20;;
42670;SDS011;28283;55.426;37.756;2023-12-07T18:24:07;12.70;;;7.32;;
42670;SDS011;28283;55.426;37.756;2023-12-07T18:29:08;12.23;;;6.10;;
42670;SDS011;28283;55.426;37.756;2023-12-07T18:34:08;12.50;;;7.28;;
42670;SDS011;28283;55.426;37.756;2023-12-07T18:39:09;12.20;;;6.53;;
42670;SDS011;28283;55.426;37.756;2023-12-07T18:44:10;11.85;;;7.53;;
42670;SDS011;28283;55.426;37.756;2023-12-07T18:49:12;12.35;;;7.68;;
42670;SDS011;28283;55.426;37.756;2023-12-07T18:54:13;16.38;;;7.88;;
42670;SDS011;28283;55.426;37.756;2023-12-07T18:59:14;12.30;;;6.72;;
42670;SDS011;28283;55.426;37.756;2023-12-07T19:04:14;16.90;;;8.23;;
42670;SDS011;28283;55.426;37.756;2023-12-07T19:09:15;13.23;;;7.72;;
42670;SDS011;28283;55.426;37.756;2023-12-07T19:14:20;14.05;;;6.63;;
42670;SDS011;28283;55.426;37.756;2023-12-07T19:19:21;14.27;;;7.75;;
42670;SDS011;28283;55.426;37.756;2023-12-07T19:24:23;15.20;;;7.45;;
42670;SDS011;28283;55.426;37.756;2023-12-07T19:29:24;12.57;;;7.25;;
42670;SDS011;28283;55.426;37.756;2023-12-07T19:34:25;10.60;;;6.90;;
42670;SDS011;28283;55.426;37.756;2023-12-07T19:39:26;13.02;;;5.88;;
42670;SDS011;28283;55.426;37.756;2023-12-07T19:44:28;15.52;;;7.68;;
42670;SDS011;28283;55.426;37.756;2023-12-07T19:49:28;12.88;;;6.90;;
42670;SDS011;28283;55.426;37.756;2023-12-07T19:54:29;16.42;;;7.60;;
42670;SDS011;28283;55.426;37.756;2023-12-07T19:59:30;10.55;;;5.28;;
42670;SDS011;28283;55.426;37.756;2023-12-07T20:04:30;12.45;;;7.65;;
42670;SDS011;28283;55.426;37.756;2023-12-07T20:09:32;12.40;;;7.07;;
42670;SDS011;28283;55.426;37.756;2023-12-07T20:14:33;7.85;;;4.30;;
42670;SDS011;28283;55.426;37.756;2023-12-07T20:19:35;7.97;;;5.03;;
42670;SDS011;28283;55.426;37.756;2023-12-07T20:24:37;10.13;;;6.45;;
42670;SDS011;28283;55.426;37.756;2023-12-07T20:29:38;12.65;;;6.45;;
42670;SDS011;28283;55.426;37.756;2023-12-07T20:34:39;12.07;;;6.72;;
42670;SDS011;28283;55.426;37.756;2023-12-07T20:39:40;13.10;;;6.75;;
42670;SDS011;28283;55.426;37.756;2023-12-07T20:44:41;11.05;;;6.20;;
42670;SDS011;28283;55.426;37.756;2023-12-07T20:49:41;10.13;;;6.30;;
42670;SDS011;28283;55.426;37.756;2023-12-07T20:54:43;13.55;;;6.50;;
42670;SDS011;28283;55.426;37.756;2023-12-07T20:59:44;11.23;;;6.93;;
42670;SDS011;28283;55.426;37.756;2023-12-07T21:04:44;12.48;;;7.40;;
42670;SDS011;28283;55.426;37.756;2023-12-07T21:09:45;12.50;;;6.40;;
42670;SDS011;28283;55.426;37.756;2023-12-07T21:14:46;12.48;;;7.25;;
42670;SDS011;28283;55.426;37.756;2023-12-07T21:19:46;12.38;;;7.05;;
42670;SDS011;28283;55.426;37.756;2023-12-07T21:24:48;17.90;;;8.05;;
42670;SDS011;28283;55.426;37.756;2023-12-07T21:29:49;9.43;;;5.50;;
42670;SDS011;28283;55.426;37.756;2023-12-07T21:34:49;11.38;;;5.88;;
42670;SDS011;28283;55.426;37.756;2023-12-07T21:39:51;13.60;;;6.15;;
42670;SDS011;28283;55.426;37.756;2023-12-07T21:44:53;17.13;;;7.97;;
42670;SDS011;28283;55.426;37.756;2023-12-07T21:49:54;11.85;;;7.10;;
42670;SDS011;28283;55.426;37.756;2023-12-07T21:54:54;13.35;;;6.63;;
42670;SDS011;28283;55.426;37.756;2023-12-07T21:59:55;12.52;;;7.60;;
42670;SDS011;28283;55.426;37.756;2023-12-07T22:04:56;13.68;;;7.93;;
42670;SDS011;28283;55.426;37.756;2023-12-07T22:09:57;14.02;;;7.97;;
42670;SDS011;28283;55.426;37.756;2023-12-07T22:14:57;15.32;;;8.88;;
42670;SDS011;28283;55.426;37.756;2023-12-07T22:19:58;12.23;;;7.35;;
42670;SDS011;28283;55.426;37.756;2023-12-07T22:24:59;12.80;;;7.35;;
42670;SDS011;28283;55.426;37.756;2023-12-07T22:30:00;12.82;;;7.13;;
42670;SDS011;28283;55.426;37.756;2023-12-07T22:35:00;15.75;;;7.28;;
42670;SDS011;28283;55.426;37.756;2023-12-07T22:40:01;13.02;;;6.57;;
42670;SDS011;28283;55.426;37.756;2023-12-07T22:45:02;14.60;;;7.95;;
42670;SDS011;28283;55.426;37.756;2023-12-07T22:50:03;14.85;;;7.70;;
42670;SDS011;28283;55.426;37.756;2023-12-07T22:55:04;13.23;;;8.35;;
42670;SDS011;28283;55.426;37.756;2023-12-07T23:00:06;9.85;;;5.78;;
42670;SDS011;28283;55.426;37.756;2023-12-07T23:05:18;14.18;;;8.00;;
42670;SDS011;28283;55.426;37.756;2023-12-07T23:10:19;12.35;;;6.47;;
42670;SDS011;28283;55.426;37.756;2023-12-07T23:15:20;14.95;;;7.80;;
42670;SDS011;28283;55.426;37.756;2023-12-07T23:20:21;13.88;;;7.97;;
42670;SDS011;28283;55.426;37.756;2023-12-07T23:25:22;12.73;;;8.07;;
42670;SDS011;28283;55.426;37.756;2023-12-07T23:30:22;13.30;;;8.20;;
42670;SDS011;28283;55.426;37.756;2023-12-07T23:35:23;14.05;;;7.38;;
42670;SDS011;28283;55.426;37.756;2023-12-07T23:40:24;17.42;;;8.30;;
42670;SDS011;28283;55.426;37.756;2023-12-07T23:45:25;6.60;;;4.40;;
42670;SDS011;28283;55.426;37.756;2023-12-07T23:50:26;13.02;;;8.20;;
42670;SDS011;28283;55.426;37.756;2023-12-07T23:55:26;17.65;;;8.18;;
